Aérodrome :
LOGIN :

S'inscrire | Disclaimer

   EN    FR    IT 

 










Légende :    VFR   VFR Marginal   IFR   IFR Intensif   IFR Très Intensif
Visi : 
Plafond : 
>= 8 km
>= 3000ft
5 à 8 km
1000 à 3000 ft
1500m à 5 km
500 à 1000 ft
800 à 1500m
200 à 500 ft
< 800m
< 200 ft
Symboles :   Orages  Brouillard  Fortes neiges  Fortes précipitations  Vent > 20 kt
SIGMETs :   Divers  Orages  Givrage  Turbulence  Onde Orograph.  Cendres Volcan.







- Altitude de l'aérodrome : 796 ft
- Code IATA : SYT
- Voir les cartes d'approche


LFLN - Saint-Yan

DERNIER METAR :
  • 200630Z AUTO 14003KT 5000 BR NSC 14/13 Q1022 NOSIG

METARs EXPIRÉS :
  • 200600Z AUTO 14003KT 1700 R33/1000U BCFG VV/// 12/12 Q1022 TEMPO 3000 BCFG NSC
  • 200530Z AUTO 00000KT 8000 0550 R33/0800D BCFG VV/// 12/11 Q1022 TEMPO 3000 BCFG NSC
  • 200500Z AUTO 00000KT 8000 NSC 13/12 Q1021
  • 200430Z AUTO 00000KT 4600 0400 R33/P2000 BCFG NSC 13/12 Q1021
  • 200400Z AUTO 16003KT 5000 BR NSC 13/12 Q1021

TAF TAF LFLN
Valide du 20 à 06h jusqu'au 20 à 15h UTC


200500Z 2006/2015 VRB05KT CAVOK
TEMPO 2006/2009 3000 BCFG NSC
Pas de NOTAMs connus pour ce terrain.



MET'MAP, la Météo Aéronautique d'un coup d'oeil ! - Copyright ORBIFLY Décembre 2007 - Disclaimer

ORBIFLY MET'MAP TEAM :

Programmation & Développement : Alexandra Zaïnal
Conception & Développement : Baudouin d'Aumeries
Co-Programmation & Développement : Marc-Olivier Méhu
Soutien technique & logistique : Manuel Goepfert

Contact : metmap@orbifly.com




SOURCES & CREDITS :

   NOAA